26.2 C
Madrid
julio, viernes 1, 2022

Accidente de dos avionetas en las proximidades del aeropuerto

Nuestros monográficos

- Publicidad -spot_img

Actualización AD 22:20. Cuatro personas han fallecido este lunes en dos accidentes simultáneos de dos avionetas ocurrido en las inmediaciones del Aeropuerto de Asturias. Según fuentes de Aviaciondigit@l.com, uno de los aparatos paso a unos 50 metros de la torre de control y de unos depósitos de combustible. Las avionetas siniestradas son una Cessna Skyline 182 T matrícula SP-CFM y una Cirrus SR-22, matrícula SP-AVD. Las condiciones meteorológicas en el momento del accidente eran marginales.

Actualización AD 15:49 El aparato impactó-total o parcialmente- contra el tejado del edificio del SEI (Servicio de Extinción de Incendios) del Aeropuerto. 15:56 Las aeronaves podrían tener matrícula polaca. 16:00 AENA dice que la aeronave había despegado de San Sebastián y se dirigía a Vilar da Luz(Portugal) 16:22 Aparece el cadáver de otro fallecido en el Monte Bayas. Serían tres las avionetas matrícula polaca que volaban en grupo. 16:28 Las avionetas siniestradas son una Cessna Skyline 182 T, matrícula SP-CFM y una Cirrus SR-22, matrícula SP-AVD 16:42 Termina el rastreo de los equipos de rescate, tras localizar al cuarto tripulante, de la segunda aeronave, fallecido. La tercera aeronave de la expedición, aterrizó finalmente en Santander, sin novedad.

METARS:

LEAS 061230Z 36005KT 260V060 0900 R29/0900V1600N R11/0200V0350N RA PRFG SCT002 BKN003 15/15 Q1010 TEMPO 2000 -RA
LEAS 061200Z 34008KT 270V030 2500 0800W R11/0200N BR RA PRFG SCT002 BKN003 14/14 Q1009 TEMPO 2000 -RA
LEAS 061130Z 33010G20KT 280V020 0900 R29/0900V1500U R11/0225N FG RA SCT002 BKN003 15/15 Q1009 TEMPO 2000 -RA


El Centro de Coordinación mantiene movilizados a efectivos de Bomberos con base en los parques de Avilés y Pravia, al Grupo de Rescate a bordo del Helicóptero Medicalizado de la Entidad y a efectivos de Bomberos de Asturias con base en La Morgal junto al Jefe de Zona en otro de los helicópteros de la Entidad para que acudan al accidente en el que se han visto implicados según la alerta recibida dos avionetas.

Uno de los aparatos cayó en el aparcamiento de aviones del aeropuerto, ubicado en el municipio de Castrillón. Fue la Torre de Control del espacio aéreo la que dio la voz de alarma al 112-Asturias a las 14:08 horas. Además de a los bomberos, se comunicó lo sucedido al SAMU que envió al aeropuerto la UVI-móvil de Avilés y una ambulancia de soporte vital básico.

Los servicios sanitarios comunicaron al 112-Asturias que había dos personas fallecidas. Los efectivos de bomberos continúan el rastreo por tierra y aire la zona para intentar localizar el segundo aparato.

Última hora:

La Guardia Civil ha comunicado a las 15.09 horas al 112-Asturias que han localizado la segunda avioneta implicada en el accidente aéreo de Castrillón. La localizaron en la zona del Monte de Bayas
- Publicidad -spot_img

Más artículos

DEJA UNA RESPUESTA

Por favor ingrese su comentario!
Por favor ingrese su nombre aquí

- Publicidad -spot_img

Todos los canales

Últimos artículos

Uso de cookies

Este sitio web utiliza cookies para que usted tenga la mejor experiencia de usuario. Si continúa navegando está dando su consentimiento para la aceptación de las mencionadas cookies y la aceptación de nuestra política de cookies, pinche el enlace para mayor información.plugin cookies

ACEPTAR
Aviso de cookies